Time,TemperatureF,DewpointF,PressureIn,WindDirection,WindDirectionDegrees,WindSpeedMPH,WindSpeedGustMPH,Humidity,HourlyPrecipIn,Conditions,Clouds,dailyrainin,SoftwareType,DateUTC
2013-08-10 00:05:00,75.8,15.4,29.71,North,0,0.0,0.0,1,0.00,,,0.00,WUHU216HW,2013-08-10 04:05:00,
2013-08-10 00:35:00,75.2,14.9,29.71,North,0,0.0,0.0,1,0.00,,,0.00,WUHU216HW,2013-08-10 04:35:00,
2013-08-10 01:05:00,74.9,14.7,29.71,North,0,0.0,0.0,1,0.00,,,0.00,WUHU216HW,2013-08-10 05:05:00,
2013-08-10 01:35:00,74.0,14.0,29.71,North,0,0.0,0.0,1,0.00,,,0.00,WUHU216HW,2013-08-10 05:35:00,
2013-08-10 02:05:00,73.4,13.7,29.71,North,0,0.0,0.0,1,0.00,,,0.00,WUHU216HW,2013-08-10 06:05:00,
2013-08-10 02:35:00,72.5,13.0,29.71,North,0,0.0,0.0,1,0.00,,,0.00,WUHU216HW,2013-08-10 06:35:00,
2013-08-10 03:05:00,72.4,12.8,29.71,North,0,0.0,0.0,1,0.00,,,0.00,WUHU216HW,2013-08-10 07:05:00,
2013-08-10 03:35:00,71.6,12.2,29.70,North,0,0.0,0.0,1,0.00,,,0.00,WUHU216HW,2013-08-10 07:35:00,
2013-08-10 04:05:00,71.6,12.2,29.70,North,0,0.0,0.0,1,0.00,,,0.00,WUHU216HW,2013-08-10 08:05:00,
2013-08-10 04:35:00,71.3,12.0,29.70,North,0,0.0,0.0,1,0.00,,,0.00,WUHU216HW,2013-08-10 08:35:00,
2013-08-10 05:05:00,70.9,11.7,29.70,North,0,0.0,0.0,1,0.00,,,0.00,WUHU216HW,2013-08-10 09:05:00,
2013-08-10 05:35:00,70.7,11.5,29.71,North,0,0.0,0.0,1,0.00,,,0.00,WUHU216HW,2013-08-10 09:35:00,
2013-08-10 06:05:00,70.9,11.7,29.70,North,0,0.0,0.0,1,0.00,,,0.00,WUHU216HW,2013-08-10 10:05:00,
2013-08-10 06:35:00,70.4,11.3,29.71,North,0,0.0,0.0,1,0.00,,,0.00,WUHU216HW,2013-08-10 10:35:00,
2013-08-10 07:05:00,70.6,11.3,29.72,North,0,0.0,0.0,1,0.00,,,0.00,WUHU216HW,2013-08-10 11:05:00,
2013-08-10 07:35:00,70.7,11.5,29.72,North,0,0.0,0.0,1,0.00,,,0.00,WUHU216HW,2013-08-10 11:35:00,
2013-08-10 08:05:00,72.0,12.5,29.72,North,0,0.0,0.0,1,0.00,,,0.00,WUHU216HW,2013-08-10 12:05:00,
2013-08-10 08:35:00,73.8,14.0,29.73,North,0,0.0,0.0,1,0.00,,,0.00,WUHU216HW,2013-08-10 12:35:00,
2013-08-10 09:05:00,77.2,16.5,29.73,North,0,0.0,0.0,1,0.00,,,0.00,WUHU216HW,2013-08-10 13:05:00,
2013-08-10 09:35:00,78.1,17.1,29.74,North,0,0.0,0.0,1,0.00,,,0.00,WUHU216HW,2013-08-10 13:35:00,
2013-08-10 10:05:00,79.6,18.2,29.75,North,0,0.0,0.0,1,0.00,,,0.00,WUHU216HW,2013-08-10 14:05:00,
2013-08-10 10:35:00,83.2,21.1,29.75,North,0,0.0,0.0,1,0.00,,,0.00,WUHU216HW,2013-08-10 14:35:00,
2013-08-10 11:05:00,90.9,26.9,29.75,North,0,0.0,0.0,1,0.00,,,0.00,WUHU216HW,2013-08-10 15:05:00,
2013-08-10 11:35:00,93.4,28.8,29.76,North,0,0.0,0.0,1,0.00,,,0.00,WUHU216HW,2013-08-10 15:35:00,
2013-08-10 12:05:00,92.2,27.9,29.75,North,0,0.0,0.0,1,0.00,,,0.00,WUHU216HW,2013-08-10 16:05:00,
2013-08-10 12:35:00,91.4,27.4,29.75,North,0,0.0,0.0,1,0.00,,,0.00,WUHU216HW,2013-08-10 16:35:00,
2013-08-10 13:05:00,91.8,27.6,29.74,North,0,0.0,0.0,1,0.00,,,0.00,WUHU216HW,2013-08-10 17:05:00,
2013-08-10 13:35:00,92.2,27.9,29.74,North,0,0.0,0.0,1,0.00,,,0.00,WUHU216HW,2013-08-10 17:35:00,
2013-08-10 14:05:00,93.1,28.5,29.73,North,0,0.0,0.0,1,0.00,,,0.00,WUHU216HW,2013-08-10 18:05:00,
2013-08-10 14:35:00,91.8,27.6,29.73,North,0,0.0,0.0,1,0.00,,,0.00,WUHU216HW,2013-08-10 18:35:00,
2013-08-10 15:05:00,91.6,27.5,29.72,North,0,0.0,0.0,1,0.00,,,0.00,WUHU216HW,2013-08-10 19:05:00,
2013-08-10 15:35:00,92.7,28.3,29.71,North,0,0.0,0.0,1,0.00,,,0.00,WUHU216HW,2013-08-10 19:35:00,
2013-08-10 16:05:00,94.0,29.2,29.70,North,0,0.0,0.0,1,0.00,,,0.00,WUHU216HW,2013-08-10 20:05:00,
2013-08-10 16:35:00,92.9,28.4,29.69,North,0,0.0,0.0,1,0.00,,,0.00,WUHU216HW,2013-08-10 20:35:00,
2013-08-10 17:05:00,92.2,27.9,29.68,North,0,0.0,0.0,1,0.00,,,0.00,WUHU216HW,2013-08-10 21:05:00,
2013-08-10 17:35:00,92.0,27.7,29.68,North,0,0.0,0.0,1,0.00,,,0.00,WUHU216HW,2013-08-10 21:35:00,
2013-08-10 18:05:00,91.4,27.4,29.67,North,0,0.0,0.0,1,0.00,,,0.00,WUHU216HW,2013-08-10 22:05:00,
2013-08-10 18:35:00,91.1,27.1,29.67,North,0,0.0,0.0,1,0.00,,,0.00,WUHU216HW,2013-08-10 22:35:00,
2013-08-10 19:05:00,90.0,26.2,29.68,North,0,0.0,0.0,1,0.00,,,0.00,WUHU216HW,2013-08-10 23:05:00,
2013-08-10 19:35:00,88.7,25.3,29.69,North,0,0.0,0.0,1,0.00,,,0.00,WUHU216HW,2013-08-10 23:35:00,
2013-08-10 20:05:00,87.5,24.4,29.70,North,0,0.0,0.0,1,0.00,,,0.00,WUHU216HW,2013-08-11 00:05:00,
2013-08-10 20:35:00,86.2,23.4,29.71,North,0,0.0,0.0,1,0.00,,,0.00,WUHU216HW,2013-08-11 00:35:00,
2013-08-10 21:05:00,85.0,22.3,29.72,North,0,0.0,0.0,1,0.00,,,0.00,WUHU216HW,2013-08-11 01:05:00,
2013-08-10 21:35:00,84.1,21.7,29.73,North,0,0.0,0.0,1,0.00,,,0.00,WUHU216HW,2013-08-11 01:35:00,
2013-08-10 22:05:00,82.8,20.8,29.74,North,0,0.0,0.0,1,0.00,,,0.00,WUHU216HW,2013-08-11 02:05:00,
2013-08-10 22:10:00,82.8,20.8,29.74,North,0,0.0,0.0,1,0.00,,,0.00,WUHU216HW,2013-08-11 02:10:00,
2013-08-10 22:35:00,81.0,19.4,29.75,North,0,0.0,0.0,1,0.00,,,0.00,WUHU216HW,2013-08-11 02:35:00,
2013-08-10 23:05:00,79.4,18.1,29.76,North,0,0.0,0.0,1,0.00,,,0.00,WUHU216HW,2013-08-11 03:05:00,
2013-08-10 23:35:00,77.8,16.9,29.76,North,0,0.0,0.0,1,0.00,,,0.00,WUHU216HW,2013-08-11 03:35:00,